createdAt,value
2022-10-04T00:01:37.872Z,2.6
2022-10-04T00:06:40.789Z,2.6
2022-10-04T00:11:43.689Z,2.4
2022-10-04T00:16:46.246Z,2.3
2022-10-04T00:21:48.539Z,2.3
2022-10-04T00:26:50.523Z,2.4
2022-10-04T00:31:52.940Z,2.4
2022-10-04T00:36:55.132Z,2.2
2022-10-04T00:41:57.074Z,2.2
2022-10-04T00:46:59.282Z,2.3
2022-10-04T00:52:02.453Z,2.3
2022-10-04T00:57:04.447Z,2.3
2022-10-04T01:02:06.796Z,2.4
2022-10-04T01:07:09.083Z,2
2022-10-04T01:12:11.019Z,2.3
2022-10-04T01:17:13.319Z,2.5
2022-10-04T01:22:15.618Z,2.5
2022-10-04T01:27:17.598Z,2.3
2022-10-04T01:32:19.688Z,2.1
2022-10-04T01:37:21.767Z,2.2
2022-10-04T01:42:23.775Z,2.3
2022-10-04T01:47:26.066Z,2.2
2022-10-04T01:52:28.288Z,2.5
2022-10-04T01:57:30.217Z,2.1
2022-10-04T02:02:32.270Z,2.2
2022-10-04T02:07:34.288Z,2.3
2022-10-04T02:12:36.294Z,2.1
2022-10-04T02:17:38.310Z,2.1
2022-10-04T02:22:40.674Z,2.1
2022-10-04T02:27:42.722Z,2.4
2022-10-04T02:32:45.057Z,2.2
2022-10-04T02:37:47.035Z,2.3
2022-10-04T02:42:49.389Z,2.6
2022-10-04T02:47:51.694Z,2.2
2022-10-04T02:52:53.654Z,2.4
2022-10-04T02:57:55.534Z,2.1
2022-10-04T03:02:57.740Z,2.3
2022-10-04T03:07:59.961Z,2.5
2022-10-04T03:13:01.934Z,2.3
2022-10-04T03:18:04.100Z,2.4
2022-10-04T03:23:06.086Z,2.8
2022-10-04T03:28:08.198Z,2.5
2022-10-04T03:33:10.465Z,2.5
2022-10-04T03:38:12.488Z,2.6
2022-10-04T03:43:14.518Z,2.9
2022-10-04T03:48:16.890Z,2.8
2022-10-04T03:53:19.109Z,3.1
2022-10-04T03:58:21.082Z,2.9
2022-10-04T04:03:23.070Z,3.2
2022-10-04T04:08:25.079Z,3.6
2022-10-04T04:13:27.031Z,3
2022-10-04T04:18:29.012Z,3.1
2022-10-04T04:23:31.081Z,3.2
2022-10-04T04:28:33.309Z,3.1
2022-10-04T04:33:36.002Z,3.1
2022-10-04T04:38:38.082Z,3.1
2022-10-04T04:43:40.312Z,3.8
2022-10-04T04:48:43.224Z,3.5
2022-10-04T04:53:45.996Z,3.1
2022-10-04T04:58:48.832Z,3.1
2022-10-04T05:03:51.506Z,3.1
2022-10-04T05:08:53.943Z,3.1
2022-10-04T05:13:55.980Z,3.3
2022-10-04T05:18:58.575Z,3.2
2022-10-04T05:24:01.464Z,3.1
2022-10-04T05:29:03.832Z,2.4
2022-10-04T05:34:06.034Z,2.1
2022-10-04T05:39:07.956Z,2
2022-10-04T05:44:10.092Z,1.6
2022-10-04T05:49:19.285Z,1.8
2022-10-04T05:54:21.669Z,1.6
2022-10-04T05:59:23.605Z,1.6
2022-10-04T06:04:25.731Z,1.4
2022-10-04T06:09:27.756Z,1.7
2022-10-04T06:14:29.675Z,1.8
2022-10-04T06:19:31.716Z,1.5
2022-10-04T06:24:34.084Z,1.7
2022-10-04T06:29:36.062Z,1.6
2022-10-04T06:34:38.057Z,1.2
2022-10-04T06:39:40.186Z,1.2
2022-10-04T06:44:46.747Z,2.2
2022-10-04T06:49:49.170Z,1.5
2022-10-04T06:54:51.179Z,1.3
2022-10-04T06:59:53.179Z,1.3
2022-10-04T07:05:09.581Z,1.2
2022-10-04T07:10:02.271Z,1.1
2022-10-04T07:15:04.312Z,1.1
2022-10-04T07:20:06.649Z,2.2
2022-10-04T07:25:09.235Z,1.2
2022-10-04T07:30:11.483Z,1.1
2022-10-04T07:35:13.382Z,1.1
2022-10-04T07:40:16.160Z,1.4
2022-10-04T07:45:18.296Z,1.4
2022-10-04T07:50:20.626Z,1.5
2022-10-04T07:55:22.981Z,1.3
2022-10-04T08:00:25.024Z,1.3
2022-10-04T08:05:27.253Z,1.2
2022-10-04T08:10:29.334Z,1.7
2022-10-04T08:15:31.472Z,1.3
2022-10-04T08:20:33.711Z,1.3
2022-10-04T08:25:36.002Z,1.4
2022-10-04T08:30:37.971Z,1.2
2022-10-04T08:35:39.982Z,1.2
2022-10-04T08:40:42.029Z,3
2022-10-04T08:45:42.555Z,1.1
2022-10-04T08:50:44.468Z,1.1
2022-10-04T08:55:46.454Z,1.4
2022-10-04T09:00:48.494Z,3
2022-10-04T09:05:50.406Z,1.3
2022-10-04T09:10:52.687Z,1.3
2022-10-04T09:15:54.993Z,1.2
2022-10-04T09:20:57.466Z,1.3
2022-10-04T09:26:00.746Z,1.3
2022-10-04T09:31:02.982Z,3.9
2022-10-04T09:36:05.331Z,1.4
2022-10-04T09:41:07.440Z,1.3
2022-10-04T09:46:09.527Z,1.3
2022-10-04T09:51:11.543Z,2.6
2022-10-04T09:56:13.475Z,2.2
2022-10-04T10:01:15.575Z,2.6
2022-10-04T10:06:17.581Z,1.7
2022-10-04T10:11:17.969Z,0.8
2022-10-04T10:16:20.470Z,0.9
2022-10-04T10:21:22.840Z,0.9
2022-10-04T10:26:24.921Z,1
2022-10-04T10:31:27.477Z,0.9
2022-10-04T10:36:30.662Z,1.3
2022-10-04T10:41:32.638Z,2.5
2022-10-04T10:46:37.031Z,1.6
2022-10-04T10:51:40.455Z,0.9
2022-10-04T10:56:42.699Z,0.9
2022-10-04T11:01:46.285Z,0.9
2022-10-04T11:06:49.118Z,1
2022-10-04T11:11:49.757Z,0.9
2022-10-04T11:16:51.686Z,0.9
2022-10-04T11:21:53.782Z,1
2022-10-04T11:26:55.995Z,0.8
2022-10-04T11:31:58.022Z,0.8
2022-10-04T11:36:59.988Z,1
2022-10-04T11:42:02.001Z,0.8
2022-10-04T11:47:04.318Z,1.9
2022-10-04T11:52:06.668Z,1
2022-10-04T11:57:08.653Z,0.9
2022-10-04T12:02:10.927Z,0.9
2022-10-04T12:07:12.830Z,0.9
2022-10-04T12:12:14.758Z,1.1
2022-10-04T12:17:17.709Z,0.9
2022-10-04T12:22:19.842Z,0.9
2022-10-04T12:27:21.845Z,0.7
2022-10-04T12:32:24.047Z,0.8
2022-10-04T12:37:26.135Z,0.9
2022-10-04T12:42:32.868Z,1.1
2022-10-04T12:47:35.097Z,1.1
2022-10-04T12:52:37.039Z,1
2022-10-04T12:57:39.022Z,0.9
2022-10-04T13:02:41.149Z,0.9
2022-10-04T13:07:43.198Z,1
2022-10-04T13:12:45.282Z,1.1
2022-10-04T13:17:47.916Z,0.9
2022-10-04T13:22:58.993Z,0.8
2022-10-04T13:27:51.239Z,1.1
2022-10-04T13:32:53.533Z,0.9
2022-10-04T13:37:57.687Z,1.1
2022-10-04T13:42:59.682Z,1.4
2022-10-04T13:48:01.692Z,1.7
2022-10-04T13:53:03.831Z,1.3
2022-10-04T13:58:05.797Z,1.8
2022-10-04T14:03:07.889Z,1.5
2022-10-04T14:08:09.941Z,1.3
2022-10-04T14:13:12.351Z,1.3
2022-10-04T14:18:14.434Z,1.2
2022-10-04T14:23:16.348Z,1.1
2022-10-04T14:28:18.443Z,1.3
2022-10-04T14:33:20.471Z,1.5
2022-10-04T14:38:27.474Z,1.6
2022-10-04T14:43:29.668Z,1.6
2022-10-04T14:48:32.029Z,1.7
2022-10-04T14:53:34.083Z,1.6
2022-10-04T14:58:36.334Z,1.6
2022-10-04T15:03:38.337Z,1.5
2022-10-04T15:08:40.634Z,7.7
2022-10-04T15:13:42.849Z,2
2022-10-04T15:18:45.136Z,1.9
2022-10-04T15:23:47.563Z,1.6
2022-10-04T15:28:49.703Z,1.5
2022-10-04T15:33:52.040Z,1.7
2022-10-04T15:38:54.025Z,1.8
2022-10-04T15:43:56.009Z,1.7
2022-10-04T15:48:58.323Z,1.8
2022-10-04T15:54:00.630Z,3.1
2022-10-04T15:59:02.541Z,1.7
2022-10-04T16:04:10.998Z,1.8
2022-10-04T16:09:11.613Z,1.9
2022-10-04T16:14:13.754Z,2
2022-10-04T16:19:16.100Z,2.1
2022-10-04T16:24:18.102Z,2.4
2022-10-04T16:29:20.223Z,3.9
2022-10-04T16:34:22.485Z,3.9
2022-10-04T16:39:24.860Z,2.9
2022-10-04T16:44:28.178Z,4.6
2022-10-04T16:49:28.661Z,2.9
2022-10-04T16:54:30.587Z,3.8
2022-10-04T16:59:32.598Z,3.8
2022-10-04T17:04:34.529Z,4.2
2022-10-04T17:09:36.724Z,4.4
2022-10-04T17:14:39.026Z,4.8
2022-10-04T17:19:41.070Z,4.6
2022-10-04T17:24:43.203Z,5
2022-10-04T17:29:45.204Z,5.4
2022-10-04T17:34:47.449Z,6.1
2022-10-04T17:39:49.395Z,21
2022-10-04T17:44:51.602Z,7.6
2022-10-04T17:49:53.733Z,8.6
2022-10-04T17:54:55.773Z,12
2022-10-04T17:59:58.083Z,13.4
2022-10-04T18:05:00.258Z,13.8
2022-10-04T18:10:02.324Z,13.6
2022-10-04T18:15:04.380Z,13.2
2022-10-04T18:20:06.408Z,13.1
2022-10-04T18:25:08.250Z,13.3
2022-10-04T18:30:10.340Z,12.1
2022-10-04T18:35:12.418Z,12.1
2022-10-04T18:40:14.297Z,12
2022-10-04T18:45:16.788Z,12.1
2022-10-04T18:50:19.366Z,10.9
2022-10-04T18:55:21.522Z,10.5
2022-10-04T19:00:28.174Z,10.1
2022-10-04T19:05:30.478Z,10
2022-10-04T19:10:35.188Z,31.2
2022-10-04T19:15:40.215Z,13.5
2022-10-04T19:20:45.635Z,12.9
2022-10-04T19:26:31.435Z,11.4
2022-10-04T19:30:54.656Z,10.7
2022-10-04T19:35:56.675Z,9.7
2022-10-04T19:40:58.648Z,9.7
2022-10-04T19:47:51.125Z,9.8
2022-10-04T19:51:03.567Z,8.6
2022-10-04T19:56:05.530Z,9.1
2022-10-04T20:01:07.612Z,9
2022-10-04T20:06:10.203Z,40.5
2022-10-04T20:11:12.297Z,8.5
2022-10-04T20:16:14.524Z,9
2022-10-04T20:21:16.923Z,9.5
2022-10-04T20:26:23.722Z,9
2022-10-04T20:31:26.098Z,8.6
2022-10-04T20:36:28.554Z,8.8
2022-10-04T20:41:30.670Z,9.5
2022-10-04T20:46:32.740Z,9.2
2022-10-04T20:51:34.847Z,9.4
2022-10-04T20:56:37.366Z,8.9
2022-10-04T21:01:39.872Z,11.8
2022-10-04T21:06:42.092Z,19.2
2022-10-04T21:11:44.875Z,10.4
2022-10-04T21:16:47.739Z,9.8
2022-10-04T21:21:51.772Z,9.5
2022-10-04T21:26:53.828Z,9.3
2022-10-04T21:31:55.979Z,9.3
2022-10-04T21:36:58.216Z,9
2022-10-04T21:42:00.168Z,8.9
2022-10-04T21:47:02.372Z,8.4
2022-10-04T21:52:04.684Z,8.3
2022-10-04T21:57:06.611Z,8.3
2022-10-04T22:02:08.823Z,8.4
2022-10-04T22:07:11.271Z,9.5
2022-10-04T22:12:13.183Z,8.6
2022-10-04T22:17:15.105Z,8.8
2022-10-04T22:22:17.069Z,9
2022-10-04T22:27:19.363Z,9
2022-10-04T22:32:21.381Z,9.5
2022-10-04T22:37:23.413Z,9
2022-10-04T22:42:25.335Z,9.4
2022-10-04T22:47:27.267Z,9.3
2022-10-04T22:52:29.217Z,9.5
2022-10-04T22:57:31.213Z,10.5
2022-10-04T23:02:33.279Z,10.3
2022-10-04T23:07:39.243Z,9.6
2022-10-04T23:12:41.518Z,10.2
2022-10-04T23:17:43.519Z,10
2022-10-04T23:22:45.608Z,10.7
2022-10-04T23:27:47.652Z,10.8
2022-10-04T23:32:49.676Z,10.4
2022-10-04T23:37:51.692Z,10.5
2022-10-04T23:42:53.617Z,10.8
2022-10-04T23:47:55.630Z,10.5
2022-10-04T23:52:57.863Z,11.4
2022-10-04T23:57:59.982Z,10.5
